sensor_id;sensor_type;location;lat;lon;timestamp;P1;durP1;ratioP1;P2;durP2;ratioP2
62435;SDS011;48480;50.252;18.848;2022-09-09T00:04:00;6.70;;;5.70;;
62435;SDS011;48480;50.252;18.848;2022-09-09T00:06:32;7.10;;;5.70;;
62435;SDS011;48480;50.252;18.848;2022-09-09T00:09:12;7.80;;;5.50;;
62435;SDS011;48480;50.252;18.848;2022-09-09T00:20:20;8.50;;;6.30;;
62435;SDS011;48480;50.252;18.848;2022-09-09T00:22:55;8.80;;;6.80;;
62435;SDS011;48480;50.252;18.848;2022-09-09T00:25:33;9.20;;;6.40;;
62435;SDS011;48480;50.252;18.848;2022-09-09T00:28:08;7.20;;;6.20;;
62435;SDS011;48480;50.252;18.848;2022-09-09T00:30:43;7.60;;;6.20;;
62435;SDS011;48480;50.252;18.848;2022-09-09T00:33:15;8.40;;;7.10;;
62435;SDS011;48480;50.252;18.848;2022-09-09T00:35:47;9.80;;;7.30;;
62435;SDS011;48480;50.252;18.848;2022-09-09T00:40:53;8.20;;;7.40;;
62435;SDS011;48480;50.252;18.848;2022-09-09T00:43:37;9.50;;;8.00;;
62435;SDS011;48480;50.252;18.848;2022-09-09T00:54:23;9.90;;;8.50;;
62435;SDS011;48480;50.252;18.848;2022-09-09T00:57:00;10.80;;;9.60;;
62435;SDS011;48480;50.252;18.848;2022-09-09T00:59:37;9.70;;;8.70;;
62435;SDS011;48480;50.252;18.848;2022-09-09T01:02:27;10.90;;;9.80;;
62435;SDS011;48480;50.252;18.848;2022-09-09T01:04:59;10.50;;;9.30;;
62435;SDS011;48480;50.252;18.848;2022-09-09T01:07:33;10.90;;;8.80;;
62435;SDS011;48480;50.252;18.848;2022-09-09T01:10:00;11.00;;;8.40;;
62435;SDS011;48480;50.252;18.848;2022-09-09T01:12:43;11.60;;;8.90;;
62435;SDS011;48480;50.252;18.848;2022-09-09T01:15:15;11.40;;;9.30;;
62435;SDS011;48480;50.252;18.848;2022-09-09T01:17:56;12.00;;;8.80;;
62435;SDS011;48480;50.252;18.848;2022-09-09T01:29:06;12.50;;;8.30;;
62435;SDS011;48480;50.252;18.848;2022-09-09T01:34:19;10.30;;;8.90;;
62435;SDS011;48480;50.252;18.848;2022-09-09T01:36:57;11.50;;;8.90;;
62435;SDS011;48480;50.252;18.848;2022-09-09T01:39:31;11.60;;;9.50;;
62435;SDS011;48480;50.252;18.848;2022-09-09T01:42:01;11.20;;;8.80;;
62435;SDS011;48480;50.252;18.848;2022-09-09T01:44:29;10.10;;;8.20;;
62435;SDS011;48480;50.252;18.848;2022-09-09T01:46:57;9.60;;;8.40;;
62435;SDS011;48480;50.252;18.848;2022-09-09T01:49:23;8.50;;;7.60;;
62435;SDS011;48480;50.252;18.848;2022-09-09T01:51:53;10.00;;;8.70;;
62435;SDS011;48480;50.252;18.848;2022-09-09T01:54:21;11.90;;;9.00;;
62435;SDS011;48480;50.252;18.848;2022-09-09T02:05:33;8.80;;;8.00;;
62435;SDS011;48480;50.252;18.848;2022-09-09T02:08:07;9.80;;;8.10;;
62435;SDS011;48480;50.252;18.848;2022-09-09T02:13:17;9.80;;;8.30;;
62435;SDS011;48480;50.252;18.848;2022-09-09T02:18:38;9.40;;;8.40;;
62435;SDS011;48480;50.252;18.848;2022-09-09T02:21:11;9.50;;;8.20;;
62435;SDS011;48480;50.252;18.848;2022-09-09T02:23:40;8.90;;;7.90;;
62435;SDS011;48480;50.252;18.848;2022-09-09T02:26:09;9.40;;;7.80;;
62435;SDS011;48480;50.252;18.848;2022-09-09T02:28:37;8.40;;;7.50;;
62435;SDS011;48480;50.252;18.848;2022-09-09T02:31:05;8.20;;;7.50;;
62435;SDS011;48480;50.252;18.848;2022-09-09T02:33:33;8.50;;;7.70;;
62435;SDS011;48480;50.252;18.848;2022-09-09T02:36:05;9.10;;;7.80;;
62435;SDS011;48480;50.252;18.848;2022-09-09T02:38:35;10.60;;;7.90;;
62435;SDS011;48480;50.252;18.848;2022-09-09T02:41:06;10.70;;;7.20;;
62435;SDS011;48480;50.252;18.848;2022-09-09T02:43:33;8.00;;;7.20;;
62435;SDS011;48480;50.252;18.848;2022-09-09T02:46:08;8.70;;;7.70;;
62435;SDS011;48480;50.252;18.848;2022-09-09T02:49:03;9.20;;;7.80;;
62435;SDS011;48480;50.252;18.848;2022-09-09T02:51:58;8.60;;;7.30;;
62435;SDS011;48480;50.252;18.848;2022-09-09T02:57:04;8.00;;;7.20;;
62435;SDS011;48480;50.252;18.848;2022-09-09T02:59:36;7.90;;;6.80;;
62435;SDS011;48480;50.252;18.848;2022-09-09T03:02:03;8.60;;;6.90;;
62435;SDS011;48480;50.252;18.848;2022-09-09T03:04:30;9.20;;;6.40;;
62435;SDS011;48480;50.252;18.848;2022-09-09T03:06:58;8.80;;;6.90;;
62435;SDS011;48480;50.252;18.848;2022-09-09T03:09:25;7.50;;;6.80;;
62435;SDS011;48480;50.252;18.848;2022-09-09T03:11:52;8.20;;;7.30;;
62435;SDS011;48480;50.252;18.848;2022-09-09T03:14:18;8.70;;;7.60;;
62435;SDS011;48480;50.252;18.848;2022-09-09T03:16:47;10.30;;;6.90;;
62435;SDS011;48480;50.252;18.848;2022-09-09T03:19:14;9.40;;;7.30;;
62435;SDS011;48480;50.252;18.848;2022-09-09T03:21:40;7.10;;;6.40;;
62435;SDS011;48480;50.252;18.848;2022-09-09T03:24:07;8.00;;;6.90;;
62435;SDS011;48480;50.252;18.848;2022-09-09T03:26:33;8.20;;;7.40;;
62435;SDS011;48480;50.252;18.848;2022-09-09T03:29:00;8.10;;;7.30;;
62435;SDS011;48480;50.252;18.848;2022-09-09T03:31:26;9.40;;;7.60;;
62435;SDS011;48480;50.252;18.848;2022-09-09T03:33:59;9.10;;;7.30;;
62435;SDS011;48480;50.252;18.848;2022-09-09T03:36:26;9.20;;;8.20;;
62435;SDS011;48480;50.252;18.848;2022-09-09T03:38:53;11.10;;;8.40;;
62435;SDS011;48480;50.252;18.848;2022-09-09T03:41:24;8.10;;;7.10;;
62435;SDS011;48480;50.252;18.848;2022-09-09T03:43:55;8.10;;;6.90;;
62435;SDS011;48480;50.252;18.848;2022-09-09T03:46:22;9.00;;;8.10;;
62435;SDS011;48480;50.252;18.848;2022-09-09T03:48:50;9.80;;;8.00;;
62435;SDS011;48480;50.252;18.848;2022-09-09T03:51:18;8.30;;;7.50;;
62435;SDS011;48480;50.252;18.848;2022-09-09T03:53:45;10.00;;;7.90;;
62435;SDS011;48480;50.252;18.848;2022-09-09T03:56:12;8.20;;;7.30;;
62435;SDS011;48480;50.252;18.848;2022-09-09T03:58:39;8.30;;;7.20;;
62435;SDS011;48480;50.252;18.848;2022-09-09T04:01:07;8.10;;;6.90;;
62435;SDS011;48480;50.252;18.848;2022-09-09T04:03:36;7.70;;;6.90;;
62435;SDS011;48480;50.252;18.848;2022-09-09T04:06:03;8.10;;;7.20;;
62435;SDS011;48480;50.252;18.848;2022-09-09T04:08:32;8.30;;;7.40;;
62435;SDS011;48480;50.252;18.848;2022-09-09T04:10:59;9.70;;;7.90;;
62435;SDS011;48480;50.252;18.848;2022-09-09T04:13:31;9.60;;;7.80;;
62435;SDS011;48480;50.252;18.848;2022-09-09T04:16:00;9.00;;;7.50;;
62435;SDS011;48480;50.252;18.848;2022-09-09T04:18:29;8.90;;;6.90;;
62435;SDS011;48480;50.252;18.848;2022-09-09T04:20:56;12.50;;;7.10;;
62435;SDS011;48480;50.252;18.848;2022-09-09T04:23:24;8.80;;;7.30;;
62435;SDS011;48480;50.252;18.848;2022-09-09T04:25:52;9.40;;;7.90;;
62435;SDS011;48480;50.252;18.848;2022-09-09T04:28:20;8.30;;;7.50;;
62435;SDS011;48480;50.252;18.848;2022-09-09T04:30:48;9.40;;;8.40;;
62435;SDS011;48480;50.252;18.848;2022-09-09T04:33:15;9.90;;;8.10;;
62435;SDS011;48480;50.252;18.848;2022-09-09T04:35:44;12.20;;;8.30;;
62435;SDS011;48480;50.252;18.848;2022-09-09T04:38:13;8.80;;;7.90;;
62435;SDS011;48480;50.252;18.848;2022-09-09T04:40:42;8.90;;;8.00;;
62435;SDS011;48480;50.252;18.848;2022-09-09T04:43:09;8.40;;;7.60;;
62435;SDS011;48480;50.252;18.848;2022-09-09T04:45:36;10.20;;;8.00;;
62435;SDS011;48480;50.252;18.848;2022-09-09T04:48:03;10.90;;;9.10;;
62435;SDS011;48480;50.252;18.848;2022-09-09T04:50:30;11.40;;;8.70;;
62435;SDS011;48480;50.252;18.848;2022-09-09T04:52:56;10.30;;;9.10;;
62435;SDS011;48480;50.252;18.848;2022-09-09T04:55:26;9.90;;;8.70;;
62435;SDS011;48480;50.252;18.848;2022-09-09T04:57:53;9.00;;;8.10;;
62435;SDS011;48480;50.252;18.848;2022-09-09T05:00:19;9.00;;;7.40;;
62435;SDS011;48480;50.252;18.848;2022-09-09T05:02:46;12.50;;;7.80;;
62435;SDS011;48480;50.252;18.848;2022-09-09T05:05:13;11.00;;;7.80;;
62435;SDS011;48480;50.252;18.848;2022-09-09T05:07:40;9.90;;;8.60;;
62435;SDS011;48480;50.252;18.848;2022-09-09T05:10:07;10.60;;;8.50;;
62435;SDS011;48480;50.252;18.848;2022-09-09T05:12:34;11.10;;;8.30;;
62435;SDS011;48480;50.252;18.848;2022-09-09T05:15:00;9.60;;;8.50;;
62435;SDS011;48480;50.252;18.848;2022-09-09T05:17:27;9.60;;;7.40;;
62435;SDS011;48480;50.252;18.848;2022-09-09T05:19:54;11.20;;;7.30;;
62435;SDS011;48480;50.252;18.848;2022-09-09T05:22:21;7.50;;;6.60;;
62435;SDS011;48480;50.252;18.848;2022-09-09T05:24:49;8.50;;;7.60;;
62435;SDS011;48480;50.252;18.848;2022-09-09T05:27:18;10.80;;;7.40;;
62435;SDS011;48480;50.252;18.848;2022-09-09T05:29:46;9.40;;;8.40;;
62435;SDS011;48480;50.252;18.848;2022-09-09T05:32:12;10.50;;;9.10;;
62435;SDS011;48480;50.252;18.848;2022-09-09T05:34:41;9.60;;;8.40;;
62435;SDS011;48480;50.252;18.848;2022-09-09T05:37:07;9.20;;;7.80;;
62435;SDS011;48480;50.252;18.848;2022-09-09T05:39:34;9.50;;;8.50;;
62435;SDS011;48480;50.252;18.848;2022-09-09T05:42:03;10.40;;;7.90;;
62435;SDS011;48480;50.252;18.848;2022-09-09T05:44:30;11.60;;;8.00;;
62435;SDS011;48480;50.252;18.848;2022-09-09T05:46:57;10.80;;;9.00;;
62435;SDS011;48480;50.252;18.848;2022-09-09T05:49:24;11.60;;;9.10;;
62435;SDS011;48480;50.252;18.848;2022-09-09T05:51:50;12.00;;;9.30;;
62435;SDS011;48480;50.252;18.848;2022-09-09T05:54:17;10.40;;;9.40;;
62435;SDS011;48480;50.252;18.848;2022-09-09T05:56:44;9.30;;;8.00;;
62435;SDS011;48480;50.252;18.848;2022-09-09T05:59:11;9.50;;;8.50;;
62435;SDS011;48480;50.252;18.848;2022-09-09T06:01:38;8.70;;;7.80;;
62435;SDS011;48480;50.252;18.848;2022-09-09T06:04:06;8.40;;;7.60;;
62435;SDS011;48480;50.252;18.848;2022-09-09T06:06:34;8.60;;;7.70;;
62435;SDS011;48480;50.252;18.848;2022-09-09T06:09:03;9.30;;;8.30;;
62435;SDS011;48480;50.252;18.848;2022-09-09T06:11:39;9.50;;;8.60;;
62435;SDS011;48480;50.252;18.848;2022-09-09T06:14:06;10.20;;;9.10;;
62435;SDS011;48480;50.252;18.848;2022-09-09T06:16:33;9.50;;;8.60;;
62435;SDS011;48480;50.252;18.848;2022-09-09T06:19:01;9.70;;;8.40;;
62435;SDS011;48480;50.252;18.848;2022-09-09T06:21:35;9.80;;;8.80;;
62435;SDS011;48480;50.252;18.848;2022-09-09T06:24:06;8.50;;;7.60;;
62435;SDS011;48480;50.252;18.848;2022-09-09T06:26:37;9.30;;;8.00;;
62435;SDS011;48480;50.252;18.848;2022-09-09T06:29:06;9.50;;;8.60;;
62435;SDS011;48480;50.252;18.848;2022-09-09T06:31:35;8.40;;;7.20;;
62435;SDS011;48480;50.252;18.848;2022-09-09T06:34:06;7.80;;;5.60;;
62435;SDS011;48480;50.252;18.848;2022-09-09T06:39:03;6.10;;;4.80;;
62435;SDS011;48480;50.252;18.848;2022-09-09T06:41:31;7.30;;;4.80;;
62435;SDS011;48480;50.252;18.848;2022-09-09T06:43:59;7.70;;;4.30;;
62435;SDS011;48480;50.252;18.848;2022-09-09T06:46:26;6.40;;;4.20;;
62435;SDS011;48480;50.252;18.848;2022-09-09T06:48:54;6.40;;;4.20;;
62435;SDS011;48480;50.252;18.848;2022-09-09T06:51:31;5.20;;;4.00;;
62435;SDS011;48480;50.252;18.848;2022-09-09T06:54:00;6.70;;;3.90;;
62435;SDS011;48480;50.252;18.848;2022-09-09T06:59:05;7.90;;;3.90;;
62435;SDS011;48480;50.252;18.848;2022-09-09T07:01:35;6.30;;;2.90;;
62435;SDS011;48480;50.252;18.848;2022-09-09T07:04:04;5.30;;;3.30;;
62435;SDS011;48480;50.252;18.848;2022-09-09T07:06:34;6.90;;;3.30;;
62435;SDS011;48480;50.252;18.848;2022-09-09T07:09:03;5.50;;;3.20;;
62435;SDS011;48480;50.252;18.848;2022-09-09T07:11:32;5.00;;;2.80;;
62435;SDS011;48480;50.252;18.848;2022-09-09T07:14:03;3.90;;;2.70;;
62435;SDS011;48480;50.252;18.848;2022-09-09T07:16:30;5.20;;;3.40;;
62435;SDS011;48480;50.252;18.848;2022-09-09T07:18:59;5.40;;;3.10;;
62435;SDS011;48480;50.252;18.848;2022-09-09T07:21:27;4.00;;;2.60;;
62435;SDS011;48480;50.252;18.848;2022-09-09T07:23:54;6.50;;;2.80;;
62435;SDS011;48480;50.252;18.848;2022-09-09T07:26:25;4.00;;;2.80;;
62435;SDS011;48480;50.252;18.848;2022-09-09T07:28:53;4.80;;;3.20;;
62435;SDS011;48480;50.252;18.848;2022-09-09T07:31:23;5.00;;;2.70;;
62435;SDS011;48480;50.252;18.848;2022-09-09T07:33:52;3.00;;;2.40;;
62435;SDS011;48480;50.252;18.848;2022-09-09T07:38:51;3.60;;;2.30;;
62435;SDS011;48480;50.252;18.848;2022-09-09T07:41:21;6.20;;;2.80;;
62435;SDS011;48480;50.252;18.848;2022-09-09T07:43:50;3.70;;;2.30;;
62435;SDS011;48480;50.252;18.848;2022-09-09T07:46:18;3.70;;;2.00;;
62435;SDS011;48480;50.252;18.848;2022-09-09T07:48:52;3.90;;;2.00;;
62435;SDS011;48480;50.252;18.848;2022-09-09T07:51:30;4.60;;;2.20;;
62435;SDS011;48480;50.252;18.848;2022-09-09T07:59:55;3.20;;;2.20;;
62435;SDS011;48480;50.252;18.848;2022-09-09T08:02:32;7.20;;;2.30;;
62435;SDS011;48480;50.252;18.848;2022-09-09T08:04:58;4.60;;;2.30;;
62435;SDS011;48480;50.252;18.848;2022-09-09T08:07:25;6.80;;;2.40;;
62435;SDS011;48480;50.252;18.848;2022-09-09T08:09:52;3.90;;;2.30;;
62435;SDS011;48480;50.252;18.848;2022-09-09T08:12:20;4.10;;;2.40;;
62435;SDS011;48480;50.252;18.848;2022-09-09T08:14:47;5.90;;;2.20;;
62435;SDS011;48480;50.252;18.848;2022-09-09T08:17:14;3.10;;;2.00;;
62435;SDS011;48480;50.252;18.848;2022-09-09T08:19:41;3.70;;;2.10;;
62435;SDS011;48480;50.252;18.848;2022-09-09T08:22:08;3.20;;;1.90;;
62435;SDS011;48480;50.252;18.848;2022-09-09T08:24:35;3.10;;;2.00;;
62435;SDS011;48480;50.252;18.848;2022-09-09T08:27:02;4.20;;;2.20;;
62435;SDS011;48480;50.252;18.848;2022-09-09T08:29:29;3.90;;;1.90;;
62435;SDS011;48480;50.252;18.848;2022-09-09T08:31:56;5.10;;;2.30;;
62435;SDS011;48480;50.252;18.848;2022-09-09T08:34:24;4.20;;;2.10;;
62435;SDS011;48480;50.252;18.848;2022-09-09T08:36:53;4.30;;;2.30;;
62435;SDS011;48480;50.252;18.848;2022-09-09T08:39:21;2.50;;;1.40;;
62435;SDS011;48480;50.252;18.848;2022-09-09T08:47:25;3.70;;;1.90;;
62435;SDS011;48480;50.252;18.848;2022-09-09T08:50:21;3.40;;;2.00;;
62435;SDS011;48480;50.252;18.848;2022-09-09T08:58:27;3.00;;;1.80;;
62435;SDS011;48480;50.252;18.848;2022-09-09T09:09:28;4.40;;;1.90;;
62435;SDS011;48480;50.252;18.848;2022-09-09T09:12:18;4.20;;;2.00;;
62435;SDS011;48480;50.252;18.848;2022-09-09T09:14:55;3.40;;;1.90;;
62435;SDS011;48480;50.252;18.848;2022-09-09T09:17:23;3.80;;;2.10;;
62435;SDS011;48480;50.252;18.848;2022-09-09T09:19:58;6.20;;;2.00;;
62435;SDS011;48480;50.252;18.848;2022-09-09T09:25:38;3.40;;;2.10;;
62435;SDS011;48480;50.252;18.848;2022-09-09T09:28:13;2.40;;;1.90;;
62435;SDS011;48480;50.252;18.848;2022-09-09T09:33:51;3.50;;;2.00;;
62435;SDS011;48480;50.252;18.848;2022-09-09T09:36:39;3.10;;;1.80;;
62435;SDS011;48480;50.252;18.848;2022-09-09T09:39:08;3.40;;;1.80;;
62435;SDS011;48480;50.252;18.848;2022-09-09T09:41:36;2.80;;;1.60;;
62435;SDS011;48480;50.252;18.848;2022-09-09T09:47:22;2.40;;;1.70;;
62435;SDS011;48480;50.252;18.848;2022-09-09T09:49:53;3.50;;;1.70;;
62435;SDS011;48480;50.252;18.848;2022-09-09T09:52:41;3.10;;;1.60;;
62435;SDS011;48480;50.252;18.848;2022-09-09T09:55:14;1.70;;;1.40;;
62435;SDS011;48480;50.252;18.848;2022-09-09T09:57:51;2.60;;;1.70;;
62435;SDS011;48480;50.252;18.848;2022-09-09T10:00:22;2.70;;;1.70;;
62435;SDS011;48480;50.252;18.848;2022-09-09T10:03:00;3.50;;;2.00;;
62435;SDS011;48480;50.252;18.848;2022-09-09T10:05:31;3.10;;;1.70;;
62435;SDS011;48480;50.252;18.848;2022-09-09T10:08:05;3.10;;;1.70;;
62435;SDS011;48480;50.252;18.848;2022-09-09T10:19:36;2.70;;;1.60;;
62435;SDS011;48480;50.252;18.848;2022-09-09T10:22:47;2.10;;;1.60;;
62435;SDS011;48480;50.252;18.848;2022-09-09T10:30:27;3.80;;;1.40;;
62435;SDS011;48480;50.252;18.848;2022-09-09T10:38:48;3.00;;;1.80;;
62435;SDS011;48480;50.252;18.848;2022-09-09T10:55:09;3.40;;;1.60;;
62435;SDS011;48480;50.252;18.848;2022-09-09T10:57:50;2.80;;;1.50;;
62435;SDS011;48480;50.252;18.848;2022-09-09T11:02:56;1.80;;;1.40;;
62435;SDS011;48480;50.252;18.848;2022-09-09T11:05:36;2.70;;;1.20;;
62435;SDS011;48480;50.252;18.848;2022-09-09T11:08:21;2.30;;;1.40;;
62435;SDS011;48480;50.252;18.848;2022-09-09T11:11:02;3.80;;;1.90;;
62435;SDS011;48480;50.252;18.848;2022-09-09T11:13:49;1.80;;;1.40;;
62435;SDS011;48480;50.252;18.848;2022-09-09T11:16:39;3.50;;;1.10;;
62435;SDS011;48480;50.252;18.848;2022-09-09T11:19:22;2.00;;;1.20;;
62435;SDS011;48480;50.252;18.848;2022-09-09T11:22:07;2.40;;;1.60;;
62435;SDS011;48480;50.252;18.848;2022-09-09T11:24:53;2.30;;;1.10;;
62435;SDS011;48480;50.252;18.848;2022-09-09T11:27:27;2.10;;;1.20;;
62435;SDS011;48480;50.252;18.848;2022-09-09T11:30:17;2.00;;;1.10;;
62435;SDS011;48480;50.252;18.848;2022-09-09T11:40:33;2.20;;;1.10;;
62435;SDS011;48480;50.252;18.848;2022-09-09T11:43:05;1.60;;;1.00;;
62435;SDS011;48480;50.252;18.848;2022-09-09T11:45:36;1.60;;;1.00;;
62435;SDS011;48480;50.252;18.848;2022-09-09T11:48:05;2.10;;;1.00;;
62435;SDS011;48480;50.252;18.848;2022-09-09T11:51:03;2.10;;;1.00;;
62435;SDS011;48480;50.252;18.848;2022-09-09T11:53:34;1.70;;;1.00;;
62435;SDS011;48480;50.252;18.848;2022-09-09T11:56:23;2.30;;;1.10;;
62435;SDS011;48480;50.252;18.848;2022-09-09T12:01:27;2.30;;;1.10;;
62435;SDS011;48480;50.252;18.848;2022-09-09T12:06:44;2.90;;;1.30;;
62435;SDS011;48480;50.252;18.848;2022-09-09T12:09:23;2.60;;;1.10;;
62435;SDS011;48480;50.252;18.848;2022-09-09T12:17:09;1.40;;;1.10;;
62435;SDS011;48480;50.252;18.848;2022-09-09T12:19:44;1.90;;;1.00;;
62435;SDS011;48480;50.252;18.848;2022-09-09T12:22:15;2.70;;;1.10;;
62435;SDS011;48480;50.252;18.848;2022-09-09T12:33:19;3.30;;;1.50;;
62435;SDS011;48480;50.252;18.848;2022-09-09T12:35:48;3.10;;;1.20;;
62435;SDS011;48480;50.252;18.848;2022-09-09T12:38:30;2.10;;;1.20;;
62435;SDS011;48480;50.252;18.848;2022-09-09T12:41:15;2.20;;;1.20;;
62435;SDS011;48480;50.252;18.848;2022-09-09T12:43:51;1.70;;;1.00;;
62435;SDS011;48480;50.252;18.848;2022-09-09T12:46:32;4.10;;;1.40;;
62435;SDS011;48480;50.252;18.848;2022-09-09T12:49:20;3.20;;;1.30;;
62435;SDS011;48480;50.252;18.848;2022-09-09T12:52:36;2.10;;;1.40;;
62435;SDS011;48480;50.252;18.848;2022-09-09T12:55:02;2.40;;;1.30;;
62435;SDS011;48480;50.252;18.848;2022-09-09T12:57:35;2.40;;;1.50;;
62435;SDS011;48480;50.252;18.848;2022-09-09T13:00:11;4.50;;;1.40;;
62435;SDS011;48480;50.252;18.848;2022-09-09T13:02:57;2.30;;;1.30;;
62435;SDS011;48480;50.252;18.848;2022-09-09T13:05:26;2.00;;;1.20;;
62435;SDS011;48480;50.252;18.848;2022-09-09T13:08:04;2.90;;;1.00;;
62435;SDS011;48480;50.252;18.848;2022-09-09T13:10:38;2.80;;;1.20;;
62435;SDS011;48480;50.252;18.848;2022-09-09T13:13:13;2.20;;;1.10;;
62435;SDS011;48480;50.252;18.848;2022-09-09T13:15:50;2.30;;;1.10;;
62435;SDS011;48480;50.252;18.848;2022-09-09T13:18:23;2.20;;;1.10;;
62435;SDS011;48480;50.252;18.848;2022-09-09T13:21:02;1.40;;;0.90;;
62435;SDS011;48480;50.252;18.848;2022-09-09T13:23:30;1.80;;;1.00;;
62435;SDS011;48480;50.252;18.848;2022-09-09T13:26:00;1.60;;;1.00;;
62435;SDS011;48480;50.252;18.848;2022-09-09T13:28:29;2.50;;;1.30;;
62435;SDS011;48480;50.252;18.848;2022-09-09T13:33:36;1.30;;;0.80;;
62435;SDS011;48480;50.252;18.848;2022-09-09T13:36:07;3.10;;;0.90;;
62435;SDS011;48480;50.252;18.848;2022-09-09T13:38:58;2.50;;;0.80;;
62435;SDS011;48480;50.252;18.848;2022-09-09T13:41:28;1.70;;;0.90;;
62435;SDS011;48480;50.252;18.848;2022-09-09T13:43:58;1.50;;;0.90;;
62435;SDS011;48480;50.252;18.848;2022-09-09T13:49:23;3.10;;;1.10;;
62435;SDS011;48480;50.252;18.848;2022-09-09T13:51:50;2.40;;;1.20;;
62435;SDS011;48480;50.252;18.848;2022-09-09T13:54:20;1.80;;;0.90;;
62435;SDS011;48480;50.252;18.848;2022-09-09T13:56:47;3.00;;;1.10;;
62435;SDS011;48480;50.252;18.848;2022-09-09T13:59:16;1.70;;;0.80;;
62435;SDS011;48480;50.252;18.848;2022-09-09T14:01:50;1.50;;;0.90;;
62435;SDS011;48480;50.252;18.848;2022-09-09T14:04:18;2.10;;;0.90;;
62435;SDS011;48480;50.252;18.848;2022-09-09T14:06:49;3.30;;;1.00;;
62435;SDS011;48480;50.252;18.848;2022-09-09T14:09:17;1.30;;;0.90;;
62435;SDS011;48480;50.252;18.848;2022-09-09T14:11:44;1.70;;;0.80;;
62435;SDS011;48480;50.252;18.848;2022-09-09T14:14:14;1.80;;;1.00;;
62435;SDS011;48480;50.252;18.848;2022-09-09T14:16:41;1.90;;;1.00;;
62435;SDS011;48480;50.252;18.848;2022-09-09T14:19:08;2.00;;;1.10;;
62435;SDS011;48480;50.252;18.848;2022-09-09T14:21:36;2.40;;;0.90;;
62435;SDS011;48480;50.252;18.848;2022-09-09T14:24:02;1.90;;;1.10;;
62435;SDS011;48480;50.252;18.848;2022-09-09T14:26:29;1.40;;;0.90;;
62435;SDS011;48480;50.252;18.848;2022-09-09T14:28:56;1.50;;;1.00;;
62435;SDS011;48480;50.252;18.848;2022-09-09T14:31:23;4.90;;;1.10;;
62435;SDS011;48480;50.252;18.848;2022-09-09T14:33:50;3.20;;;1.10;;
62435;SDS011;48480;50.252;18.848;2022-09-09T14:36:17;2.50;;;1.10;;
62435;SDS011;48480;50.252;18.848;2022-09-09T14:38:44;1.30;;;0.90;;
62435;SDS011;48480;50.252;18.848;2022-09-09T14:41:15;2.50;;;1.40;;
62435;SDS011;48480;50.252;18.848;2022-09-09T14:43:46;4.40;;;1.90;;
62435;SDS011;48480;50.252;18.848;2022-09-09T14:46:14;2.20;;;1.00;;
62435;SDS011;48480;50.252;18.848;2022-09-09T14:48:42;2.60;;;0.90;;
62435;SDS011;48480;50.252;18.848;2022-09-09T14:51:23;1.50;;;0.80;;
62435;SDS011;48480;50.252;18.848;2022-09-09T14:53:51;2.00;;;1.10;;
62435;SDS011;48480;50.252;18.848;2022-09-09T14:56:20;2.70;;;1.10;;
62435;SDS011;48480;50.252;18.848;2022-09-09T14:58:49;2.00;;;1.10;;
62435;SDS011;48480;50.252;18.848;2022-09-09T15:01:18;2.00;;;1.20;;
62435;SDS011;48480;50.252;18.848;2022-09-09T15:03:50;2.00;;;1.00;;
62435;SDS011;48480;50.252;18.848;2022-09-09T15:06:19;2.70;;;1.00;;
62435;SDS011;48480;50.252;18.848;2022-09-09T15:08:47;2.70;;;1.20;;
62435;SDS011;48480;50.252;18.848;2022-09-09T15:11:14;2.20;;;1.30;;
62435;SDS011;48480;50.252;18.848;2022-09-09T15:13:42;5.30;;;1.80;;
62435;SDS011;48480;50.252;18.848;2022-09-09T15:16:13;3.60;;;1.40;;
62435;SDS011;48480;50.252;18.848;2022-09-09T15:18:43;3.30;;;1.10;;
62435;SDS011;48480;50.252;18.848;2022-09-09T15:21:14;2.90;;;1.10;;
62435;SDS011;48480;50.252;18.848;2022-09-09T15:23:43;2.90;;;1.40;;
62435;SDS011;48480;50.252;18.848;2022-09-09T15:26:09;1.90;;;1.00;;
62435;SDS011;48480;50.252;18.848;2022-09-09T15:28:37;2.70;;;1.10;;
62435;SDS011;48480;50.252;18.848;2022-09-09T15:31:09;1.80;;;1.10;;
62435;SDS011;48480;50.252;18.848;2022-09-09T15:33:38;4.90;;;1.20;;
62435;SDS011;48480;50.252;18.848;2022-09-09T15:36:18;3.30;;;1.20;;
62435;SDS011;48480;50.252;18.848;2022-09-09T15:38:50;3.50;;;1.00;;
62435;SDS011;48480;50.252;18.848;2022-09-09T15:41:19;4.00;;;1.50;;
62435;SDS011;48480;50.252;18.848;2022-09-09T15:43:49;2.50;;;1.30;;
62435;SDS011;48480;50.252;18.848;2022-09-09T15:51:32;2.90;;;1.70;;
62435;SDS011;48480;50.252;18.848;2022-09-09T15:53:59;4.90;;;1.90;;
62435;SDS011;48480;50.252;18.848;2022-09-09T15:56:27;2.50;;;1.50;;
62435;SDS011;48480;50.252;18.848;2022-09-09T15:59:01;2.80;;;1.60;;
62435;SDS011;48480;50.252;18.848;2022-09-09T16:01:29;3.00;;;1.60;;
62435;SDS011;48480;50.252;18.848;2022-09-09T16:03:57;5.10;;;1.60;;
62435;SDS011;48480;50.252;18.848;2022-09-09T16:06:26;2.50;;;1.50;;
62435;SDS011;48480;50.252;18.848;2022-09-09T16:08:55;3.80;;;1.70;;
62435;SDS011;48480;50.252;18.848;2022-09-09T16:11:25;4.00;;;1.40;;
62435;SDS011;48480;50.252;18.848;2022-09-09T16:13:55;3.80;;;1.80;;
62435;SDS011;48480;50.252;18.848;2022-09-09T16:16:24;3.70;;;2.00;;
62435;SDS011;48480;50.252;18.848;2022-09-09T16:18:53;6.60;;;2.00;;
62435;SDS011;48480;50.252;18.848;2022-09-09T16:21:25;4.30;;;1.50;;
62435;SDS011;48480;50.252;18.848;2022-09-09T16:24:02;2.20;;;1.40;;
62435;SDS011;48480;50.252;18.848;2022-09-09T16:26:30;3.90;;;1.50;;
62435;SDS011;48480;50.252;18.848;2022-09-09T16:29:00;2.40;;;1.30;;
62435;SDS011;48480;50.252;18.848;2022-09-09T16:31:31;3.80;;;1.70;;
62435;SDS011;48480;50.252;18.848;2022-09-09T16:33:59;4.80;;;1.50;;
62435;SDS011;48480;50.252;18.848;2022-09-09T16:36:27;5.30;;;2.10;;
62435;SDS011;48480;50.252;18.848;2022-09-09T16:38:58;4.10;;;1.90;;
62435;SDS011;48480;50.252;18.848;2022-09-09T16:41:27;2.20;;;1.40;;
62435;SDS011;48480;50.252;18.848;2022-09-09T16:44:02;4.20;;;1.60;;
62435;SDS011;48480;50.252;18.848;2022-09-09T16:46:30;2.90;;;1.60;;
62435;SDS011;48480;50.252;18.848;2022-09-09T16:49:00;3.70;;;1.70;;
62435;SDS011;48480;50.252;18.848;2022-09-09T16:51:32;2.40;;;1.20;;
62435;SDS011;48480;50.252;18.848;2022-09-09T16:54:02;4.30;;;1.50;;
62435;SDS011;48480;50.252;18.848;2022-09-09T16:56:32;5.00;;;1.50;;
62435;SDS011;48480;50.252;18.848;2022-09-09T17:01:32;3.80;;;1.60;;
62435;SDS011;48480;50.252;18.848;2022-09-09T17:04:05;3.70;;;1.50;;
62435;SDS011;48480;50.252;18.848;2022-09-09T17:06:34;3.70;;;1.50;;
62435;SDS011;48480;50.252;18.848;2022-09-09T17:09:07;4.40;;;1.40;;
62435;SDS011;48480;50.252;18.848;2022-09-09T17:11:35;2.70;;;1.40;;
62435;SDS011;48480;50.252;18.848;2022-09-09T17:14:04;4.60;;;1.60;;
62435;SDS011;48480;50.252;18.848;2022-09-09T17:16:34;5.80;;;1.60;;
62435;SDS011;48480;50.252;18.848;2022-09-09T17:19:02;3.00;;;1.60;;
62435;SDS011;48480;50.252;18.848;2022-09-09T17:21:30;3.60;;;1.50;;
62435;SDS011;48480;50.252;18.848;2022-09-09T17:23:58;5.00;;;2.00;;
62435;SDS011;48480;50.252;18.848;2022-09-09T17:26:27;6.60;;;1.90;;
62435;SDS011;48480;50.252;18.848;2022-09-09T17:28:58;4.40;;;1.40;;
62435;SDS011;48480;50.252;18.848;2022-09-09T17:31:27;5.00;;;1.80;;
62435;SDS011;48480;50.252;18.848;2022-09-09T17:33:55;3.60;;;1.90;;
62435;SDS011;48480;50.252;18.848;2022-09-09T17:36:27;2.30;;;1.70;;
62435;SDS011;48480;50.252;18.848;2022-09-09T17:38:56;3.20;;;1.80;;
62435;SDS011;48480;50.252;18.848;2022-09-09T17:41:27;3.90;;;2.00;;
62435;SDS011;48480;50.252;18.848;2022-09-09T17:43:56;4.50;;;2.00;;
62435;SDS011;48480;50.252;18.848;2022-09-09T17:46:24;3.80;;;1.80;;